legislation_cosponsors
Data license: Public Domain (U.S. Government data) · Data source: Federal Register API & Regulations.gov API
103 rows where bill_id = "110-hr-3010" sorted by sponsorship_date descending
This data as json, CSV (advanced)
Suggested facets: party, sponsorship_date, sponsorship_date (date)
| Link | bill_id | bioguide_id | full_name | party | state | sponsorship_date ▲ | is_original_cosponsor |
|---|---|---|---|---|---|---|---|
| 110-hr-3010,H001040 | Arbitration Fairness Act of 2007 110-hr-3010 | H001040 | Rep. Hare, Phil [D-IL-17] | D | IL | 2008-09-18 | 0 |
| 110-hr-3010,B000490 | Arbitration Fairness Act of 2007 110-hr-3010 | B000490 | Rep. Bishop, Sanford D., Jr. [D-GA-2] | D | GA | 2008-07-22 | 0 |
| 110-hr-3010,L000559 | Arbitration Fairness Act of 2007 110-hr-3010 | L000559 | Rep. Langevin, James R. [D-RI-2] | D | RI | 2008-07-15 | 0 |
| 110-hr-3010,M000725 | Arbitration Fairness Act of 2007 110-hr-3010 | M000725 | Rep. Miller, George [D-CA-7] | D | CA | 2008-07-10 | 0 |
| 110-hr-3010,G000535 | Arbitration Fairness Act of 2007 110-hr-3010 | G000535 | Rep. Gutierrez, Luis V. [D-IL-4] | D | IL | 2008-07-08 | 0 |
| 110-hr-3010,S001045 | Arbitration Fairness Act of 2007 110-hr-3010 | S001045 | Rep. Stupak, Bart [D-MI-1] | D | MI | 2008-07-08 | 0 |
| 110-hr-3010,A000210 | Arbitration Fairness Act of 2007 110-hr-3010 | A000210 | Rep. Andrews, Robert E. [D-NJ-1] | D | NJ | 2008-07-08 | 0 |
| 110-hr-3010,K000180 | Arbitration Fairness Act of 2007 110-hr-3010 | K000180 | Rep. Kilpatrick, Carolyn C. [D-MI-13] | D | MI | 2008-07-08 | 0 |
| 110-hr-3010,D000327 | Arbitration Fairness Act of 2007 110-hr-3010 | D000327 | Rep. Dicks, Norman D. [D-WA-6] | D | WA | 2008-06-19 | 0 |
| 110-hr-3010,I000026 | Arbitration Fairness Act of 2007 110-hr-3010 | I000026 | Rep. Inslee, Jay [D-WA-1] | D | WA | 2008-06-17 | 0 |
| 110-hr-3010,L000565 | Arbitration Fairness Act of 2007 110-hr-3010 | L000565 | Rep. Loebsack, David [D-IA-2] | D | IA | 2008-05-22 | 0 |
| 110-hr-3010,W000215 | Arbitration Fairness Act of 2007 110-hr-3010 | W000215 | Rep. Waxman, Henry A. [D-CA-30] | D | CA | 2008-05-22 | 0 |
| 110-hr-3010,M001154 | Arbitration Fairness Act of 2007 110-hr-3010 | M001154 | Rep. Miller, Brad [D-NC-13] | D | NC | 2008-04-22 | 0 |
| 110-hr-3010,P000099 | Arbitration Fairness Act of 2007 110-hr-3010 | P000099 | Rep. Pastor, Ed [D-AZ-4] | D | AZ | 2008-04-22 | 0 |
| 110-hr-3010,S000248 | Arbitration Fairness Act of 2007 110-hr-3010 | S000248 | Rep. Serrano, Jose E. [D-NY-16] | D | NY | 2008-04-22 | 0 |
| 110-hr-3010,T000465 | Arbitration Fairness Act of 2007 110-hr-3010 | T000465 | Rep. Tsongas, Niki [D-MA-5] | D | MA | 2008-04-22 | 0 |
| 110-hr-3010,T000193 | Arbitration Fairness Act of 2007 110-hr-3010 | T000193 | Rep. Thompson, Bennie G. [D-MS-2] | D | MS | 2008-04-22 | 0 |
| 110-hr-3010,M000133 | Arbitration Fairness Act of 2007 110-hr-3010 | M000133 | Rep. Markey, Edward J. [D-MA-7] | D | MA | 2008-04-01 | 0 |
| 110-hr-3010,H000324 | Arbitration Fairness Act of 2007 110-hr-3010 | H000324 | Rep. Hastings, Alcee L. [D-FL-23] | D | FL | 2008-03-14 | 0 |
| 110-hr-3010,B001242 | Arbitration Fairness Act of 2007 110-hr-3010 | B001242 | Rep. Bishop, Timothy H. [D-NY-1] | D | NY | 2008-03-14 | 0 |
| 110-hr-3010,L000480 | Arbitration Fairness Act of 2007 110-hr-3010 | L000480 | Rep. Lowey, Nita M. [D-NY-18] | D | NY | 2008-03-14 | 0 |
| 110-hr-3010,S000510 | Arbitration Fairness Act of 2007 110-hr-3010 | S000510 | Rep. Smith, Adam [D-WA-9] | D | WA | 2008-03-14 | 0 |
| 110-hr-3010,C001058 | Arbitration Fairness Act of 2007 110-hr-3010 | C001058 | Rep. Chandler, Ben [D-KY-6] | D | KY | 2008-03-14 | 0 |
| 110-hr-3010,V000128 | Arbitration Fairness Act of 2007 110-hr-3010 | V000128 | Rep. Van Hollen, Chris [D-MD-8] | D | MD | 2008-03-14 | 0 |
| 110-hr-3010,M001163 | Arbitration Fairness Act of 2007 110-hr-3010 | M001163 | Rep. Matsui, Doris O. [D-CA-5] | D | CA | 2008-03-05 | 0 |
| 110-hr-3010,U000039 | Arbitration Fairness Act of 2007 110-hr-3010 | U000039 | Rep. Udall, Tom [D-NM-3] | D | NM | 2008-03-05 | 0 |
| 110-hr-3010,S000465 | Arbitration Fairness Act of 2007 110-hr-3010 | S000465 | Rep. Skelton, Ike [D-MO-4] | D | MO | 2008-03-05 | 0 |
| 110-hr-3010,S000344 | Arbitration Fairness Act of 2007 110-hr-3010 | S000344 | Rep. Sherman, Brad [D-CA-27] | D | CA | 2008-02-26 | 0 |
| 110-hr-3010,L000551 | Arbitration Fairness Act of 2007 110-hr-3010 | L000551 | Rep. Lee, Barbara [D-CA-9] | D | CA | 2008-02-26 | 0 |
| 110-hr-3010,J000283 | Arbitration Fairness Act of 2007 110-hr-3010 | J000283 | Rep. Jackson, Jesse L., Jr. [D-IL-2] | D | IL | 2008-02-26 | 0 |
| 110-hr-3010,S001156 | Arbitration Fairness Act of 2007 110-hr-3010 | S001156 | Rep. Sánchez, Linda T. [D-CA-39] | D | CA | 2008-02-14 | 0 |
| 110-hr-3010,S001170 | Arbitration Fairness Act of 2007 110-hr-3010 | S001170 | Rep. Shea-Porter, Carol [D-NH-1] | D | NH | 2008-02-14 | 0 |
| 110-hr-3010,M000309 | Arbitration Fairness Act of 2007 110-hr-3010 | M000309 | Rep. McCarthy, Carolyn [D-NY-4] | D | NY | 2008-02-14 | 0 |
| 110-hr-3010,E000187 | Arbitration Fairness Act of 2007 110-hr-3010 | E000187 | Rep. English, Phil [R-PA-3] | R | PA | 2008-02-06 | 0 |
| 110-hr-3010,C001069 | Arbitration Fairness Act of 2007 110-hr-3010 | C001069 | Rep. Courtney, Joe [D-CT-2] | D | CT | 2008-02-06 | 0 |
| 110-hr-3010,W000207 | Arbitration Fairness Act of 2007 110-hr-3010 | W000207 | Rep. Watt, Melvin L. [D-NC-12] | D | NC | 2008-01-23 | 0 |
| 110-hr-3010,A000363 | Arbitration Fairness Act of 2007 110-hr-3010 | A000363 | Rep. Arcuri, Michael A. [D-NY-24] | D | NY | 2008-01-22 | 0 |
| 110-hr-3010,W000738 | Arbitration Fairness Act of 2007 110-hr-3010 | W000738 | Rep. Woolsey, Lynn C. [D-CA-6] | D | CA | 2008-01-22 | 0 |
| 110-hr-3010,D000216 | Arbitration Fairness Act of 2007 110-hr-3010 | D000216 | Rep. DeLauro, Rosa L. [D-CT-3] | D | CT | 2007-12-17 | 0 |
| 110-hr-3010,C001060 | Arbitration Fairness Act of 2007 110-hr-3010 | C001060 | Rep. Carnahan, Russ [D-MO-3] | D | MO | 2007-12-17 | 0 |
| 110-hr-3010,M001166 | Arbitration Fairness Act of 2007 110-hr-3010 | M001166 | Rep. McNerney, Jerry [D-CA-11] | D | CA | 2007-12-17 | 0 |
| 110-hr-3010,A000357 | Arbitration Fairness Act of 2007 110-hr-3010 | A000357 | Rep. Allen, Thomas H. [D-ME-1] | D | ME | 2007-12-17 | 0 |
| 110-hr-3010,C001067 | Arbitration Fairness Act of 2007 110-hr-3010 | C001067 | Rep. Clarke, Yvette D. [D-NY-11] | D | NY | 2007-12-17 | 0 |
| 110-hr-3010,S001158 | Arbitration Fairness Act of 2007 110-hr-3010 | S001158 | Rep. Salazar, John T. [D-CO-3] | D | CO | 2007-12-17 | 0 |
| 110-hr-3010,S000185 | Arbitration Fairness Act of 2007 110-hr-3010 | S000185 | Rep. Scott, Robert C. "Bobby" [D-VA-3] | D | VA | 2007-12-11 | 0 |
| 110-hr-3010,D000210 | Arbitration Fairness Act of 2007 110-hr-3010 | D000210 | Rep. Delahunt, William D. [D-MA-10] | D | MA | 2007-12-11 | 0 |
| 110-hr-3010,M001120 | Arbitration Fairness Act of 2007 110-hr-3010 | M001120 | Rep. Murtha, John P. [D-PA-12] | D | PA | 2007-12-11 | 0 |
| 110-hr-3010,C000714 | Arbitration Fairness Act of 2007 110-hr-3010 | C000714 | Rep. Conyers, John, Jr. [D-MI-14] | D | MI | 2007-12-11 | 0 |
| 110-hr-3010,W000799 | Arbitration Fairness Act of 2007 110-hr-3010 | W000799 | Rep. Walz, Timothy J. [D-MN-1] | D | MN | 2007-12-11 | 0 |
| 110-hr-3010,P000592 | Arbitration Fairness Act of 2007 110-hr-3010 | P000592 | Rep. Poe, Ted [R-TX-2] | R | TX | 2007-12-11 | 0 |
| 110-hr-3010,S001162 | Arbitration Fairness Act of 2007 110-hr-3010 | S001162 | Rep. Schwartz, Allyson Y. [D-PA-13] | D | PA | 2007-11-15 | 0 |
| 110-hr-3010,B000652 | Arbitration Fairness Act of 2007 110-hr-3010 | B000652 | Rep. Boswell, Leonard L. [D-IA-3] | D | IA | 2007-11-15 | 0 |
| 110-hr-3010,S001173 | Arbitration Fairness Act of 2007 110-hr-3010 | S001173 | Rep. Space, Zachary T. [D-OH-18] | D | OH | 2007-11-15 | 0 |
| 110-hr-3010,D000482 | Arbitration Fairness Act of 2007 110-hr-3010 | D000482 | Rep. Doyle, Michael F. [D-PA-14] | D | PA | 2007-11-09 | 0 |
| 110-hr-3010,B000410 | Arbitration Fairness Act of 2007 110-hr-3010 | B000410 | Rep. Berman, Howard L. [D-CA-28] | D | CA | 2007-11-09 | 0 |
| 110-hr-3010,W000314 | Arbitration Fairness Act of 2007 110-hr-3010 | W000314 | Rep. Wexler, Robert [D-FL-19] | D | FL | 2007-11-09 | 0 |
| 110-hr-3010,H001034 | Arbitration Fairness Act of 2007 110-hr-3010 | H001034 | Rep. Honda, Michael M. [D-CA-15] | D | CA | 2007-11-09 | 0 |
| 110-hr-3010,W000800 | Arbitration Fairness Act of 2007 110-hr-3010 | W000800 | Rep. Welch, Peter [D-VT-At Large] | D | VT | 2007-11-09 | 0 |
| 110-hr-3010,M001143 | Arbitration Fairness Act of 2007 110-hr-3010 | M001143 | Rep. McCollum, Betty [D-MN-4] | D | MN | 2007-11-09 | 0 |
| 110-hr-3010,M000087 | Arbitration Fairness Act of 2007 110-hr-3010 | M000087 | Rep. Maloney, Carolyn B. [D-NY-14] | D | NY | 2007-11-09 | 0 |
| 110-hr-3010,J000126 | Arbitration Fairness Act of 2007 110-hr-3010 | J000126 | Rep. Johnson, Eddie Bernice [D-TX-30] | D | TX | 2007-10-31 | 0 |
| 110-hr-3010,B001229 | Arbitration Fairness Act of 2007 110-hr-3010 | B001229 | Rep. Baird, Brian [D-WA-3] | D | WA | 2007-10-31 | 0 |
| 110-hr-3010,H001038 | Arbitration Fairness Act of 2007 110-hr-3010 | H001038 | Rep. Higgins, Brian [D-NY-27] | D | NY | 2007-10-31 | 0 |
| 110-hr-3010,K000008 | Arbitration Fairness Act of 2007 110-hr-3010 | K000008 | Rep. Kanjorski, Paul E. [D-PA-11] | D | PA | 2007-10-31 | 0 |
| 110-hr-3010,C000191 | Arbitration Fairness Act of 2007 110-hr-3010 | C000191 | Rep. Carson, Julia [D-IN-7] | D | IN | 2007-10-31 | 0 |
| 110-hr-3010,D000197 | Arbitration Fairness Act of 2007 110-hr-3010 | D000197 | Rep. DeGette, Diana [D-CO-1] | D | CO | 2007-10-31 | 0 |
| 110-hr-3010,D000533 | Arbitration Fairness Act of 2007 110-hr-3010 | D000533 | Rep. Duncan, John J., Jr. [R-TN-2] | R | TN | 2007-10-31 | 0 |
| 110-hr-3010,S000810 | Arbitration Fairness Act of 2007 110-hr-3010 | S000810 | Rep. Stark, Fortney Pete [D-CA-13] | D | CA | 2007-10-24 | 0 |
| 110-hr-3010,J000032 | Arbitration Fairness Act of 2007 110-hr-3010 | J000032 | Rep. Jackson-Lee, Sheila [D-TX-18] | D | TX | 2007-10-24 | 0 |
| 110-hr-3010,L000553 | Arbitration Fairness Act of 2007 110-hr-3010 | L000553 | Rep. LaTourette, Steven C. [R-OH-14] | R | OH | 2007-10-24 | 0 |
| 110-hr-3010,L000562 | Arbitration Fairness Act of 2007 110-hr-3010 | L000562 | Rep. Lynch, Stephen F. [D-MA-9] | D | MA | 2007-10-24 | 0 |
| 110-hr-3010,C001061 | Arbitration Fairness Act of 2007 110-hr-3010 | C001061 | Rep. Cleaver, Emanuel [D-MO-5] | D | MO | 2007-10-22 | 0 |
| 110-hr-3010,T000266 | Arbitration Fairness Act of 2007 110-hr-3010 | T000266 | Rep. Tierney, John F. [D-MA-6] | D | MA | 2007-10-22 | 0 |
| 110-hr-3010,G000410 | Arbitration Fairness Act of 2007 110-hr-3010 | G000410 | Rep. Green, Gene [D-TX-29] | D | TX | 2007-10-22 | 0 |
| 110-hr-3010,C001037 | Arbitration Fairness Act of 2007 110-hr-3010 | C001037 | Rep. Capuano, Michael E. [D-MA-8] | D | MA | 2007-10-16 | 0 |
| 110-hr-3010,G000553 | Arbitration Fairness Act of 2007 110-hr-3010 | G000553 | Rep. Green, Al [D-TX-9] | D | TX | 2007-10-16 | 0 |
| 110-hr-3010,S001153 | Arbitration Fairness Act of 2007 110-hr-3010 | S001153 | Rep. Solis, Hilda L. [D-CA-32] | D | CA | 2007-10-16 | 0 |
| 110-hr-3010,B001230 | Arbitration Fairness Act of 2007 110-hr-3010 | B001230 | Rep. Baldwin, Tammy [D-WI-2] | D | WI | 2007-10-16 | 0 |
| 110-hr-3010,D000191 | Arbitration Fairness Act of 2007 110-hr-3010 | D000191 | Rep. DeFazio, Peter A. [D-OR-4] | D | OR | 2007-10-16 | 0 |
| 110-hr-3010,P000149 | Arbitration Fairness Act of 2007 110-hr-3010 | P000149 | Rep. Payne, Donald M. [D-NJ-10] | D | NJ | 2007-10-16 | 0 |
| 110-hr-3010,F000116 | Arbitration Fairness Act of 2007 110-hr-3010 | F000116 | Rep. Filner, Bob [D-CA-51] | D | CA | 2007-10-16 | 0 |
| 110-hr-3010,D000399 | Arbitration Fairness Act of 2007 110-hr-3010 | D000399 | Rep. Doggett, Lloyd [D-TX-25] | D | TX | 2007-10-16 | 0 |
| 110-hr-3010,M000312 | Arbitration Fairness Act of 2007 110-hr-3010 | M000312 | Rep. McGovern, James P. [D-MA-3] | D | MA | 2007-10-16 | 0 |
| 110-hr-3010,P000034 | Arbitration Fairness Act of 2007 110-hr-3010 | P000034 | Rep. Pallone, Frank, Jr. [D-NJ-6] | D | NJ | 2007-10-16 | 0 |
| 110-hr-3010,F000043 | Arbitration Fairness Act of 2007 110-hr-3010 | F000043 | Rep. Fattah, Chaka [D-PA-2] | D | PA | 2007-10-16 | 0 |
| 110-hr-3010,N000002 | Arbitration Fairness Act of 2007 110-hr-3010 | N000002 | Rep. Nadler, Jerrold [D-NY-8] | D | NY | 2007-10-16 | 0 |
| 110-hr-3010,B001227 | Arbitration Fairness Act of 2007 110-hr-3010 | B001227 | Rep. Brady, Robert A. [D-PA-1] | D | PA | 2007-10-03 | 0 |
| 110-hr-3010,D000429 | Arbitration Fairness Act of 2007 110-hr-3010 | D000429 | Rep. Doolittle, John T. [R-CA-4] | R | CA | 2007-10-03 | 0 |
| 110-hr-3010,S001168 | Arbitration Fairness Act of 2007 110-hr-3010 | S001168 | Rep. Sarbanes, John P. [D-MD-3] | D | MD | 2007-10-03 | 0 |
| 110-hr-3010,W000797 | Arbitration Fairness Act of 2007 110-hr-3010 | W000797 | Rep. Wasserman Schultz, Debbie [D-FL-20] | D | FL | 2007-09-07 | 0 |
| 110-hr-3010,G000551 | Arbitration Fairness Act of 2007 110-hr-3010 | G000551 | Rep. Grijalva, Raúl M. [D-AZ-7] | D | AZ | 2007-09-07 | 0 |
| 110-hr-3010,F000339 | Arbitration Fairness Act of 2007 110-hr-3010 | F000339 | Rep. Frank, Barney [D-MA-4] | D | MA | 2007-08-03 | 0 |
| 110-hr-3010,S001174 | Arbitration Fairness Act of 2007 110-hr-3010 | S001174 | Rep. Sutton, Betty [D-OH-13] | D | OH | 2007-07-30 | 0 |
| 110-hr-3010,K000336 | Arbitration Fairness Act of 2007 110-hr-3010 | K000336 | Rep. Kucinich, Dennis J. [D-OH-10] | D | OH | 2007-07-30 | 0 |
| 110-hr-3010,D000096 | Arbitration Fairness Act of 2007 110-hr-3010 | D000096 | Rep. Davis, Danny K. [D-IL-7] | D | IL | 2007-07-30 | 0 |
| 110-hr-3010,B001252 | Arbitration Fairness Act of 2007 110-hr-3010 | B001252 | Rep. Barrow, John [D-GA-12] | D | GA | 2007-07-12 | 1 |
| 110-hr-3010,L000287 | Arbitration Fairness Act of 2007 110-hr-3010 | L000287 | Rep. Lewis, John [D-GA-5] | D | GA | 2007-07-12 | 1 |
| 110-hr-3010,S001145 | Arbitration Fairness Act of 2007 110-hr-3010 | S001145 | Rep. Schakowsky, Janice D. [D-IL-9] | D | IL | 2007-07-12 | 1 |
| 110-hr-3010,B001259 | Arbitration Fairness Act of 2007 110-hr-3010 | B001259 | Rep. Braley, Bruce L. [D-IA-1] | D | IA | 2007-07-12 | 1 |
| 110-hr-3010,C000984 | Arbitration Fairness Act of 2007 110-hr-3010 | C000984 | Rep. Cummings, Elijah E. [D-MD-7] | D | MD | 2007-07-12 | 1 |
Advanced export
JSON shape: default, array, newline-delimited, object
CREATE TABLE legislation_cosponsors (
bill_id TEXT NOT NULL REFERENCES legislation(bill_id),
bioguide_id TEXT NOT NULL,
full_name TEXT,
party TEXT,
state TEXT,
sponsorship_date TEXT,
is_original_cosponsor INTEGER,
PRIMARY KEY (bill_id, bioguide_id)
);
CREATE INDEX idx_lc_bioguide ON legislation_cosponsors(bioguide_id);
CREATE INDEX idx_lc_bill ON legislation_cosponsors(bill_id);
CREATE INDEX idx_lc_original ON legislation_cosponsors(is_original_cosponsor);